Time;durP1;ratioP1;P1;durP2;ratioP2;P2;SDS_P1;SDS_P2;PMS_P1;PMS_P2;Temp;Humidity;BMP_temperature;BMP_pressure;BME280_temperature;BME280_humidity;BME280_pressure;Samples;Min_cycle;Max_cycle;Signal;HPM_P1;HPM_P2
2024/01/30 00:01:55;;;;;;;6.07;4.80;;;9.00;82.70;;;;;;4868992;29;20029;-77
2024/01/30 00:04:21;;;;;;;5.10;4.13;;;9.10;82.80;;;;;;4857111;29;20486;-82
2024/01/30 00:06:47;;;;;;;5.97;4.82;;;9.00;82.70;;;;;;4839367;29;20029;-82
2024/01/30 00:09:13;;;;;;;5.90;4.65;;;9.00;82.70;;;;;;4838746;29;20072;-82
2024/01/30 00:11:39;;;;;;;6.18;4.95;;;9.00;82.70;;;;;;4839615;29;20147;-95
2024/01/30 00:14:04;;;;;;;6.20;4.55;;;9.00;82.70;;;;;;4853645;29;20026;-77
2024/01/30 00:16:31;;;;;;;5.78;4.90;;;9.00;82.70;;;;;;4870533;29;20044;-82
2024/01/30 00:18:57;;;;;;;6.25;4.90;;;9.00;82.70;;;;;;4839610;29;20513;-77
2024/01/30 00:21:22;;;;;;;5.93;4.38;;;9.00;82.70;;;;;;4869600;29;20666;-81
2024/01/30 00:23:49;;;;;;;6.68;4.82;;;9.00;82.70;;;;;;4849528;29;20832;-77
2024/01/30 00:26:14;;;;;;;5.18;4.20;;;9.00;82.70;;;;;;4855657;29;20388;-82
2024/01/30 00:28:41;;;;;;;5.45;4.18;;;9.00;82.70;;;;;;4860101;29;20065;-82
2024/01/30 00:31:07;;;;;;;5.90;4.75;;;9.00;82.70;;;;;;4857169;29;20114;-83
2024/01/30 00:33:33;;;;;;;5.25;4.50;;;9.00;82.70;;;;;;4874495;29;20039;-82
2024/01/30 00:35:59;;;;;;;5.80;4.57;;;9.00;82.70;;;;;;4842349;29;20541;-82
2024/01/30 00:38:24;;;;;;;6.13;4.45;;;9.00;82.70;;;;;;4860042;29;20057;-82
2024/01/30 00:40:50;;;;;;;7.47;4.50;;;9.00;82.70;;;;;;4856498;29;20032;-93
2024/01/30 00:43:16;;;;;;;5.85;4.72;;;8.90;82.70;;;;;;4875914;29;20025;-94
2024/01/30 00:45:44;;;;;;;5.65;4.25;;;8.90;82.70;;;;;;4859477;29;20082;-77
2024/01/30 00:48:09;;;;;;;5.80;4.45;;;8.90;82.70;;;;;;4839929;29;20041;-81
2024/01/30 00:50:36;;;;;;;6.35;4.78;;;8.90;83.30;;;;;;4859612;29;20033;-81
2024/01/30 00:53:02;;;;;;;5.97;4.50;;;8.90;82.70;;;;;;4872334;29;20029;-81
2024/01/30 00:55:28;;;;;;;5.32;3.97;;;8.90;82.70;;;;;;4874973;29;20509;-82
2024/01/30 00:57:54;;;;;;;5.80;4.57;;;8.90;82.70;;;;;;4852681;29;20389;-83
2024/01/30 01:00:20;;;;;;;5.13;4.15;;;8.90;82.70;;;;;;4855273;29;20025;-94
2024/01/30 01:02:46;;;;;;;5.57;4.10;;;8.90;82.70;;;;;;4869429;29;20490;-81
2024/01/30 01:05:12;;;;;;;5.82;4.57;;;8.90;82.70;;;;;;4876367;29;20448;-94
2024/01/30 01:07:38;;;;;;;5.50;4.18;;;8.90;82.70;;;;;;4860228;29;20025;-94
2024/01/30 01:10:04;;;;;;;6.30;4.93;;;8.90;82.70;;;;;;4860642;29;20029;-82
2024/01/30 01:12:30;;;;;;;5.47;4.28;;;8.90;82.70;;;;;;4865492;29;20038;-82
2024/01/30 01:14:55;;;;;;;6.05;4.35;;;8.90;82.70;;;;;;4831375;29;20033;-77
2024/01/30 01:17:21;;;;;;;6.03;4.30;;;8.90;82.80;;;;;;4872719;29;20032;-82
2024/01/30 01:19:47;;;;;;;5.72;4.32;;;8.80;82.70;;;;;;4880159;29;20021;-82
2024/01/30 01:22:13;;;;;;;5.85;4.18;;;8.90;82.80;;;;;;4873789;29;20352;-82
2024/01/30 01:24:38;;;;;;;5.70;4.50;;;8.80;82.70;;;;;;4862124;29;20067;-83
2024/01/30 01:27:05;;;;;;;5.72;4.13;;;8.90;82.70;;;;;;4875128;29;20036;-93
2024/01/30 01:29:31;;;;;;;5.68;4.40;;;8.80;82.70;;;;;;4842980;29;20481;-78
2024/01/30 01:31:58;;;;;;;5.50;4.18;;;8.80;82.70;;;;;;4861233;29;20485;-82
2024/01/30 01:34:24;;;;;;;6.20;4.63;;;8.80;82.70;;;;;;4863379;29;20085;-81
2024/01/30 01:36:50;;;;;;;5.80;4.32;;;8.80;82.70;;;;;;4860191;29;20104;-94
2024/01/30 01:39:17;;;;;;;6.53;4.70;;;8.80;82.70;;;;;;4858747;29;20033;-77
2024/01/30 01:41:43;;;;;;;5.13;4.25;;;8.80;82.70;;;;;;4861196;29;20081;-82
2024/01/30 01:44:09;;;;;;;6.15;4.50;;;8.80;82.70;;;;;;4839286;29;20033;-77
2024/01/30 01:46:36;;;;;;;5.60;4.57;;;8.80;82.70;;;;;;4865654;29;20034;-76
2024/01/30 01:49:04;;;;;;;5.78;4.55;;;8.80;82.70;;;;;;4869083;29;20478;-77
2024/01/30 01:51:33;;;;;;;5.38;4.10;;;8.80;82.80;;;;;;4854607;29;20097;-77
2024/01/30 01:54:05;;;;;;;4.97;3.83;;;8.80;82.80;;;;;;4838609;29;20061;-82
2024/01/30 01:56:34;;;;;;;5.38;4.28;;;8.80;82.70;;;;;;4872625;29;20045;-82
2024/01/30 01:59:05;;;;;;;5.80;4.60;;;8.70;82.60;;;;;;4857393;29;20033;-94
2024/01/30 02:01:32;;;;;;;5.75;4.32;;;8.80;82.70;;;;;;4858043;29;20037;-95
2024/01/30 02:03:59;;;;;;;5.40;4.07;;;8.80;82.70;;;;;;4858435;29;20307;-77
2024/01/30 02:06:25;;;;;;;4.90;3.97;;;8.80;82.70;;;;;;4869226;29;20067;-83
2024/01/30 02:08:53;;;;;;;4.88;3.97;;;8.70;82.60;;;;;;4856758;29;20037;-83
2024/01/30 02:11:20;;;;;;;5.80;4.60;;;8.70;82.60;;;;;;4858636;29;20401;-95
2024/01/30 02:13:46;;;;;;;5.45;3.92;;;8.70;82.60;;;;;;4859501;29;20025;-94
2024/01/30 02:16:12;;;;;;;5.43;4.32;;;8.70;82.60;;;;;;4857735;29;20090;-82
2024/01/30 02:18:43;;;;;;;5.35;4.43;;;8.70;82.60;;;;;;4841798;29;20482;-95
2024/01/30 02:21:08;;;;;;;6.53;4.60;;;8.70;82.60;;;;;;4872527;29;20029;-77
2024/01/30 02:23:34;;;;;;;5.20;4.30;;;8.70;82.60;;;;;;4851791;29;20575;-81
2024/01/30 02:26:00;;;;;;;5.55;4.15;;;8.70;82.60;;;;;;4869180;29;20082;-82
2024/01/30 02:28:27;;;;;;;5.95;4.30;;;8.70;82.60;;;;;;4834061;29;20064;-82
2024/01/30 02:30:53;;;;;;;5.03;4.03;;;8.70;82.60;;;;;;4867910;29;20054;-95
2024/01/30 02:33:19;;;;;;;5.90;4.38;;;8.70;82.60;;;;;;4855184;29;20390;-81
2024/01/30 02:35:44;;;;;;;6.28;4.68;;;8.70;82.60;;;;;;4858075;29;20033;-82
2024/01/30 02:38:10;;;;;;;6.00;4.45;;;8.70;82.60;;;;;;4857445;29;20098;-94
2024/01/30 02:40:36;;;;;;;5.22;3.80;;;8.70;82.60;;;;;;4856918;29;20030;-93
2024/01/30 02:43:03;;;;;;;6.03;4.57;;;8.70;82.60;;;;;;4871205;29;20025;-77
2024/01/30 02:45:28;;;;;;;5.63;4.10;;;8.70;82.60;;;;;;4869936;29;20499;-81
2024/01/30 02:47:54;;;;;;;5.85;4.38;;;8.70;82.60;;;;;;4856871;29;20093;-82
2024/01/30 02:50:20;;;;;;;5.50;4.30;;;8.70;82.60;;;;;;4856005;29;20032;-82
2024/01/30 02:52:46;;;;;;;5.75;4.07;;;8.70;82.60;;;;;;4869438;29;20045;-77
2024/01/30 02:55:12;;;;;;;6.22;4.28;;;8.70;82.60;;;;;;4854241;29;20045;-93
2024/01/30 02:57:39;;;;;;;6.22;4.40;;;8.70;82.60;;;;;;4840208;29;20029;-82
2024/01/30 03:00:06;;;;;;;5.70;4.53;;;8.70;82.60;;;;;;4871879;29;20335;-94
2024/01/30 03:02:35;;;;;;;5.85;4.50;;;8.70;82.60;;;;;;4839108;29;20040;-81
2024/01/30 03:05:01;;;;;;;5.13;4.10;;;8.70;82.60;;;;;;4858696;29;20034;-82
2024/01/30 03:07:26;;;;;;;5.25;4.25;;;8.60;82.60;;;;;;4868458;29;20040;-77
2024/01/30 03:09:52;;;;;;;5.05;4.20;;;8.60;82.60;;;;;;4853933;29;20094;-77
2024/01/30 03:12:18;;;;;;;5.78;4.22;;;8.70;82.70;;;;;;4853283;29;20029;-82
2024/01/30 03:14:44;;;;;;;5.63;3.95;;;8.60;82.60;;;;;;4867803;29;20033;-78
2024/01/30 03:17:09;;;;;;;5.53;4.10;;;8.60;82.60;;;;;;4859020;29;20037;-82
2024/01/30 03:19:35;;;;;;;5.25;4.10;;;8.60;82.60;;;;;;4871617;29;20042;-77
2024/01/30 03:22:01;;;;;;;5.47;4.03;;;8.60;82.60;;;;;;4852226;29;20040;-77
2024/01/30 03:24:27;;;;;;;5.65;4.63;;;8.60;82.60;;;;;;4853231;29;20041;-94
2024/01/30 03:26:53;;;;;;;5.43;4.05;;;8.60;82.60;;;;;;4870879;29;20044;-77
2024/01/30 03:29:19;;;;;;;4.82;3.83;;;8.60;82.70;;;;;;4867895;29;20030;-82
2024/01/30 03:31:44;;;;;;;6.13;4.57;;;8.60;82.70;;;;;;4859090;29;20219;-81
2024/01/30 03:34:10;;;;;;;5.55;4.20;;;8.60;82.70;;;;;;4858730;29;20055;-77
2024/01/30 03:36:36;;;;;;;5.18;4.28;;;8.60;82.70;;;;;;4873940;29;20030;-77
2024/01/30 03:39:02;;;;;;;5.20;4.13;;;8.60;82.70;;;;;;4858374;29;20054;-82
2024/01/30 03:41:28;;;;;;;5.07;4.05;;;8.60;82.80;;;;;;4874368;29;20037;-76
2024/01/30 03:43:54;;;;;;;4.88;3.72;;;8.50;83.30;;;;;;4867331;29;20040;-81
2024/01/30 03:46:20;;;;;;;6.20;3.95;;;8.60;82.80;;;;;;4837139;29;20051;-77
2024/01/30 03:48:46;;;;;;;5.38;4.15;;;8.50;82.70;;;;;;4869083;29;20068;-77
2024/01/30 03:51:14;;;;;;;5.10;3.83;;;8.50;82.80;;;;;;4835935;29;20040;-93
2024/01/30 03:53:43;;;;;;;5.78;4.28;;;8.50;82.70;;;;;;4854858;29;20049;-93
2024/01/30 03:56:09;;;;;;;4.93;3.88;;;8.50;82.80;;;;;;4853837;29;20393;-81
2024/01/30 03:58:35;;;;;;;5.30;4.22;;;8.50;82.70;;;;;;4873052;29;20052;-82
2024/01/30 04:01:01;;;;;;;5.10;4.05;;;8.50;82.70;;;;;;4858547;29;20034;-82
2024/01/30 04:03:27;;;;;;;5.43;4.28;;;8.50;82.70;;;;;;4858908;29;20037;-82
2024/01/30 04:05:53;;;;;;;5.10;3.95;;;8.50;82.70;;;;;;4845309;29;20055;-82
2024/01/30 04:08:19;;;;;;;4.80;3.78;;;8.50;82.70;;;;;;4859084;29;20033;-93
2024/01/30 04:10:46;;;;;;;5.80;4.63;;;8.50;82.70;;;;;;4873171;29;20053;-77
2024/01/30 04:13:14;;;;;;;5.57;3.95;;;8.40;82.70;;;;;;4870511;29;20025;-77
2024/01/30 04:15:40;;;;;;;5.53;4.15;;;8.50;82.80;;;;;;4843486;29;20022;-82
2024/01/30 04:18:06;;;;;;;5.00;3.78;;;8.50;82.80;;;;;;4858337;29;20034;-77
2024/01/30 04:20:32;;;;;;;5.28;4.13;;;8.50;82.80;;;;;;4872783;29;20112;-79
2024/01/30 04:22:58;;;;;;;5.05;3.78;;;8.50;82.80;;;;;;4871833;29;20029;-94
2024/01/30 04:25:23;;;;;;;5.30;3.80;;;8.40;82.70;;;;;;4858192;29;20112;-78
2024/01/30 04:27:49;;;;;;;4.88;3.72;;;8.40;82.70;;;;;;4845006;29;20025;-82
2024/01/30 04:30:15;;;;;;;5.38;4.00;;;8.40;82.70;;;;;;4856028;29;20037;-82
2024/01/30 04:32:41;;;;;;;4.93;3.83;;;8.40;82.70;;;;;;4872871;29;20102;-82
2024/01/30 04:35:07;;;;;;;4.68;3.53;;;8.40;82.70;;;;;;4859631;29;20036;-82
2024/01/30 04:37:33;;;;;;;5.22;3.88;;;8.40;82.70;;;;;;4842588;29;20086;-94
2024/01/30 04:39:58;;;;;;;5.35;4.25;;;8.40;82.70;;;;;;4858588;29;20025;-82
2024/01/30 04:42:24;;;;;;;4.90;3.88;;;8.40;82.70;;;;;;4835156;29;20045;-82
2024/01/30 04:44:50;;;;;;;4.97;3.97;;;8.40;82.70;;;;;;4859453;29;20030;-93
2024/01/30 04:47:16;;;;;;;5.68;3.97;;;8.40;82.70;;;;;;4859008;29;20136;-82
2024/01/30 04:49:41;;;;;;;5.03;3.63;;;8.40;82.70;;;;;;4858445;29;20029;-77
2024/01/30 04:52:08;;;;;;;5.55;3.72;;;8.40;82.70;;;;;;4857589;29;20034;-82
2024/01/30 04:54:35;;;;;;;5.50;3.85;;;8.40;82.70;;;;;;4854244;29;20179;-78
2024/01/30 04:57:01;;;;;;;5.57;4.20;;;8.30;82.60;;;;;;4857085;29;20026;-82
2024/01/30 04:59:27;;;;;;;5.40;4.13;;;8.40;82.70;;;;;;4870148;29;20038;-93
2024/01/30 05:01:53;;;;;;;5.45;4.13;;;8.30;82.60;;;;;;4873302;29;20048;-93
2024/01/30 05:04:19;;;;;;;6.10;4.47;;;8.30;82.60;;;;;;4841041;29;20106;-82
2024/01/30 05:06:45;;;;;;;5.35;3.88;;;8.30;82.70;;;;;;4860026;29;20267;-81
2024/01/30 05:09:11;;;;;;;5.15;4.05;;;8.30;82.60;;;;;;4856939;29;20018;-77
2024/01/30 05:11:38;;;;;;;5.22;4.10;;;8.30;82.60;;;;;;4837284;29;20501;-82
2024/01/30 05:14:04;;;;;;;5.57;4.00;;;8.30;82.70;;;;;;4857590;29;20026;-81
2024/01/30 05:16:31;;;;;;;4.88;3.88;;;8.30;82.60;;;;;;4859585;29;20038;-81
2024/01/30 05:18:57;;;;;;;4.97;3.97;;;8.30;82.60;;;;;;4843799;29;20100;-82
2024/01/30 05:21:23;;;;;;;5.68;4.25;;;8.30;82.60;;;;;;4860281;29;20135;-77
2024/01/30 05:23:49;;;;;;;5.80;4.28;;;8.30;82.60;;;;;;4862174;29;20751;-95
2024/01/30 05:26:14;;;;;;;4.88;3.88;;;8.30;82.60;;;;;;4859042;29;20501;-82
2024/01/30 05:28:40;;;;;;;5.38;4.22;;;8.30;82.70;;;;;;4861262;29;20070;-82
2024/01/30 05:31:06;;;;;;;4.82;3.85;;;8.30;82.60;;;;;;4859660;29;20116;-81
2024/01/30 05:33:32;;;;;;;5.50;4.18;;;8.30;82.60;;;;;;4838563;29;20409;-77
2024/01/30 05:35:57;;;;;;;6.53;4.25;;;8.30;82.70;;;;;;4855875;29;20044;-82
2024/01/30 05:38:23;;;;;;;5.80;4.28;;;8.30;82.60;;;;;;4870857;29;20045;-81
2024/01/30 05:40:49;;;;;;;4.68;3.80;;;8.30;82.60;;;;;;4855944;29;20042;-95
2024/01/30 05:43:15;;;;;;;5.43;4.15;;;8.30;82.60;;;;;;4856725;29;20033;-93
2024/01/30 05:45:41;;;;;;;6.10;3.92;;;8.30;82.70;;;;;;4841549;29;20030;-85
2024/01/30 05:48:07;;;;;;;5.63;4.35;;;8.30;82.70;;;;;;4854279;29;20051;-81
2024/01/30 05:50:33;;;;;;;5.32;4.05;;;8.30;82.70;;;;;;4838318;29;20030;-86
2024/01/30 05:52:58;;;;;;;5.75;4.45;;;8.30;82.70;;;;;;4843120;29;20041;-86
2024/01/30 05:55:24;;;;;;;5.43;4.18;;;8.30;82.70;;;;;;4864212;29;20130;-93
2024/01/30 05:57:52;;;;;;;6.47;4.10;;;8.30;82.70;;;;;;4863893;29;20037;-95
2024/01/30 06:00:18;;;;;;;6.38;4.57;;;8.40;82.80;;;;;;4882555;29;20101;-95
2024/01/30 06:02:43;;;;;;;5.00;3.67;;;8.30;82.70;;;;;;4877381;29;20053;-94
2024/01/30 06:05:09;;;;;;;5.75;4.40;;;8.40;82.70;;;;;;4859403;29;20087;-80
2024/01/30 06:07:35;;;;;;;5.70;4.47;;;8.40;82.70;;;;;;4838032;29;20073;-83
2024/01/30 06:10:01;;;;;;;5.82;4.10;;;8.40;82.70;;;;;;4875218;29;20033;-94
2024/01/30 06:12:28;;;;;;;5.32;4.05;;;8.40;82.70;;;;;;4889586;29;20037;-79
2024/01/30 06:14:56;;;;;;;5.57;4.22;;;8.40;82.70;;;;;;4860642;29;20026;-95
2024/01/30 06:17:23;;;;;;;6.63;4.45;;;8.40;82.70;;;;;;4887865;29;20025;-95
2024/01/30 06:19:49;;;;;;;5.07;4.00;;;8.40;82.70;;;;;;4856329;29;20490;-83
2024/01/30 06:22:16;;;;;;;7.20;4.20;;;8.40;82.60;;;;;;4853787;29;20041;-80
2024/01/30 06:24:45;;;;;;;5.53;4.15;;;8.50;82.70;;;;;;4865140;29;20030;-82
2024/01/30 06:27:11;;;;;;;6.05;4.35;;;8.40;82.60;;;;;;4867580;29;20747;-78
2024/01/30 06:29:37;;;;;;;5.78;4.28;;;8.50;82.70;;;;;;4854058;29;20037;-87
2024/01/30 06:32:03;;;;;;;6.10;4.78;;;8.50;82.70;;;;;;4853813;29;20039;-82
2024/01/30 06:34:29;;;;;;;5.72;4.07;;;8.40;82.60;;;;;;4855548;29;20034;-89
2024/01/30 06:36:54;;;;;;;5.78;4.20;;;8.50;82.70;;;;;;4853210;29;20025;-85
2024/01/30 06:39:20;;;;;;;5.50;3.83;;;8.50;82.60;;;;;;4855927;29;20042;-77
2024/01/30 06:41:46;;;;;;;5.38;3.97;;;8.50;82.70;;;;;;4872950;29;20028;-90
2024/01/30 06:44:12;;;;;;;6.72;4.07;;;8.50;82.60;;;;;;4854968;29;20037;-83
2024/01/30 06:46:38;;;;;;;6.72;4.85;;;8.50;82.60;;;;;;4858380;29;20038;-94
2024/01/30 06:49:04;;;;;;;6.70;4.65;;;8.50;82.60;;;;;;4856552;29;20062;-85
2024/01/30 06:51:30;;;;;;;5.47;4.13;;;8.50;82.70;;;;;;4874989;29;20069;-77
2024/01/30 06:53:56;;;;;;;5.55;4.10;;;8.60;82.70;;;;;;4845823;29;20482;-94
2024/01/30 06:56:22;;;;;;;5.32;3.92;;;8.50;82.60;;;;;;4845883;29;20393;-77
2024/01/30 06:58:49;;;;;;;5.65;4.20;;;8.60;82.70;;;;;;4837310;29;20385;-77
2024/01/30 07:01:15;;;;;;;5.70;4.22;;;8.60;82.70;;;;;;4843249;29;20030;-83
2024/01/30 07:03:41;;;;;;;5.70;4.30;;;8.60;82.70;;;;;;4860699;29;20173;-77
2024/01/30 07:06:06;;;;;;;5.03;3.90;;;8.60;82.70;;;;;;4875729;29;20070;-83
2024/01/30 07:08:32;;;;;;;4.95;4.20;;;8.60;82.70;;;;;;4839410;29;20029;-80
2024/01/30 07:10:58;;;;;;;6.30;4.45;;;8.70;82.70;;;;;;4855925;29;20108;-77
2024/01/30 07:13:24;;;;;;;5.53;4.25;;;8.70;82.70;;;;;;4851567;29;20083;-82
2024/01/30 07:15:50;;;;;;;6.03;4.63;;;8.60;82.70;;;;;;4842097;29;20073;-95
2024/01/30 07:18:16;;;;;;;5.63;4.32;;;8.70;82.80;;;;;;4873979;29;20051;-94
2024/01/30 07:20:49;;;;;;;5.40;3.80;;;8.60;82.70;;;;;;4857391;29;20913;-82
2024/01/30 07:23:17;;;;;;;9.43;4.45;;;8.70;82.80;;;;;;4860203;29;20029;-81
2024/01/30 07:25:46;;;;;;;5.40;3.85;;;8.70;82.70;;;;;;4858434;29;20056;-94
2024/01/30 07:28:12;;;;;;;6.38;4.68;;;8.70;82.80;;;;;;4844438;29;20041;-95
2024/01/30 07:30:38;;;;;;;6.30;4.50;;;8.70;82.70;;;;;;4859975;29;20454;-94
2024/01/30 07:33:04;;;;;;;4.82;3.70;;;8.70;82.70;;;;;;4857122;29;20053;-81
2024/01/30 07:35:30;;;;;;;5.97;4.22;;;8.80;82.80;;;;;;4838063;29;20075;-81
2024/01/30 07:37:57;;;;;;;5.57;3.65;;;8.80;82.80;;;;;;4858741;29;20376;-94
2024/01/30 07:40:24;;;;;;;5.30;3.92;;;8.80;82.80;;;;;;4835284;29;20371;-82
2024/01/30 07:42:50;;;;;;;5.90;4.35;;;8.80;82.80;;;;;;4864364;29;20048;-82
2024/01/30 07:45:16;;;;;;;5.00;3.97;;;8.80;82.80;;;;;;4860615;29;20124;-76
2024/01/30 07:47:42;;;;;;;5.88;3.85;;;8.80;82.80;;;;;;4860672;29;20030;-81
2024/01/30 07:50:09;;;;;;;5.53;3.95;;;8.80;82.80;;;;;;4871419;29;20029;-82
2024/01/30 07:52:34;;;;;;;5.00;4.15;;;8.90;82.90;;;;;;4869633;29;20038;-77
2024/01/30 07:55:01;;;;;;;5.07;3.78;;;8.90;82.80;;;;;;4854047;29;20663;-77
2024/01/30 07:57:26;;;;;;;5.70;4.28;;;8.90;82.90;;;;;;4868700;29;20052;-77
2024/01/30 07:59:52;;;;;;;5.65;4.05;;;8.90;83.50;;;;;;4850510;29;20395;-81
2024/01/30 08:02:18;;;;;;;4.70;3.92;;;8.90;82.90;;;;;;4855260;29;20562;-81
2024/01/30 08:04:48;;;;;;;5.20;4.10;;;8.90;82.90;;;;;;4877556;29;20038;-77
2024/01/30 08:07:14;;;;;;;4.95;3.78;;;8.90;82.90;;;;;;4864521;29;20050;-95
2024/01/30 08:09:39;;;;;;;4.63;3.58;;;8.90;82.90;;;;;;4859255;29;20073;-82
2024/01/30 08:12:05;;;;;;;5.88;4.63;;;9.00;82.90;;;;;;4856606;29;20098;-82
2024/01/30 08:14:31;;;;;;;5.95;4.00;;;9.00;83.10;;;;;;4855060;29;20383;-78
2024/01/30 08:16:57;;;;;;;5.22;3.92;;;9.00;82.90;;;;;;4871285;29;20032;-78
2024/01/30 08:19:23;;;;;;;5.28;3.65;;;9.00;82.90;;;;;;4856166;29;20105;-84
2024/01/30 08:21:49;;;;;;;5.03;3.80;;;9.10;83.00;;;;;;4873831;29;20117;-86
2024/01/30 08:24:14;;;;;;;5.50;4.03;;;9.10;82.90;;;;;;4863369;29;20026;-82
2024/01/30 08:26:40;;;;;;;5.10;4.10;;;9.10;82.90;;;;;;4870105;29;20049;-81
2024/01/30 08:29:06;;;;;;;5.53;3.95;;;9.10;82.90;;;;;;4848571;29;20528;-78
2024/01/30 08:31:32;;;;;;;5.80;4.18;;;9.10;82.90;;;;;;4842664;29;20125;-78
2024/01/30 08:33:58;;;;;;;7.07;4.30;;;9.10;82.90;;;;;;4865802;29;20030;-78
2024/01/30 08:36:25;;;;;;;5.68;4.15;;;9.10;82.90;;;;;;4859080;29;20037;-81
2024/01/30 08:38:51;;;;;;;7.32;4.63;;;9.20;82.90;;;;;;4859214;29;20034;-82
2024/01/30 08:41:16;;;;;;;6.47;4.55;;;9.20;82.90;;;;;;4842833;29;20248;-95
2024/01/30 08:43:44;;;;;;;5.47;3.97;;;9.20;82.90;;;;;;4843514;29;20110;-81
2024/01/30 08:46:10;;;;;;;5.15;3.70;;;9.20;82.90;;;;;;4859468;29;20037;-78
2024/01/30 08:48:36;;;;;;;6.20;4.32;;;9.20;82.90;;;;;;4876955;29;20537;-82
2024/01/30 08:51:02;;;;;;;5.90;4.28;;;9.30;82.90;;;;;;4846380;29;20101;-82
2024/01/30 08:53:28;;;;;;;6.18;4.15;;;9.30;82.90;;;;;;4852972;29;20125;-81
2024/01/30 08:55:54;;;;;;;5.95;4.22;;;9.30;82.90;;;;;;4864111;29;20037;-83
2024/01/30 08:58:19;;;;;;;5.75;4.05;;;9.30;82.90;;;;;;4865911;29;20037;-78
2024/01/30 09:00:45;;;;;;;5.82;4.07;;;9.30;82.90;;;;;;4865117;29;20298;-94
2024/01/30 09:03:11;;;;;;;5.18;4.00;;;9.40;82.90;;;;;;4877723;29;20525;-78
2024/01/30 09:05:37;;;;;;;6.00;4.20;;;9.40;82.90;;;;;;4861181;29;20037;-93
2024/01/30 09:08:03;;;;;;;5.47;4.13;;;9.40;82.90;;;;;;4863267;29;20117;-78
2024/01/30 09:10:28;;;;;;;5.22;3.97;;;9.40;82.90;;;;;;4835466;29;20485;-82
2024/01/30 09:12:54;;;;;;;5.80;4.15;;;9.50;82.90;;;;;;4858675;29;20592;-78
2024/01/30 09:15:20;;;;;;;5.05;4.10;;;9.50;82.90;;;;;;4860839;29;20467;-94
2024/01/30 09:17:46;;;;;;;5.10;3.80;;;9.50;82.90;;;;;;4861543;29;20106;-78
2024/01/30 09:20:11;;;;;;;6.55;4.65;;;9.50;82.90;;;;;;4848071;29;20025;-83
2024/01/30 09:22:38;;;;;;;6.25;4.45;;;9.50;82.80;;;;;;4858492;29;20025;-83
2024/01/30 09:25:04;;;;;;;6.28;4.72;;;9.60;82.90;;;;;;4871562;29;20044;-83
2024/01/30 09:27:30;;;;;;;5.10;4.10;;;9.60;82.90;;;;;;4868291;29;20072;-93
2024/01/30 09:29:56;;;;;;;5.30;4.18;;;9.60;82.90;;;;;;4862513;29;20038;-83
2024/01/30 09:32:22;;;;;;;5.68;4.15;;;9.60;82.80;;;;;;4856673;29;20040;-83
2024/01/30 09:34:48;;;;;;;5.65;4.43;;;9.70;82.90;;;;;;4860801;29;20038;-81
2024/01/30 09:37:15;;;;;;;6.05;4.50;;;9.70;82.90;;;;;;4857867;29;20041;-94
2024/01/30 09:39:41;;;;;;;6.05;4.30;;;9.70;82.90;;;;;;4867604;29;20120;-78
2024/01/30 09:42:29;;;;;;;5.40;4.00;;;9.70;82.90;;;;;;4858471;29;20157;-77
2024/01/30 09:44:56;;;;;;;6.57;3.97;;;9.80;82.90;;;;;;4856928;29;20029;-82
2024/01/30 09:47:21;;;;;;;5.53;3.92;;;9.80;82.80;;;;;;4862029;29;20044;-78
2024/01/30 09:49:48;;;;;;;5.93;4.40;;;9.80;82.80;;;;;;4873759;29;20072;-82
2024/01/30 09:52:15;;;;;;;6.43;4.47;;;9.80;82.80;;;;;;4875677;29;20076;-78
2024/01/30 09:54:41;;;;;;;4.68;3.75;;;9.90;82.90;;;;;;4865710;29;20042;-82
2024/01/30 09:57:08;;;;;;;6.30;4.38;;;9.90;82.90;;;;;;4861539;29;20033;-78
2024/01/30 09:59:34;;;;;;;5.45;4.28;;;9.90;82.90;;;;;;4871767;29;20045;-94
2024/01/30 10:02:00;;;;;;;6.18;4.40;;;9.90;82.80;;;;;;4852972;29;20037;-78
2024/01/30 10:04:26;;;;;;;6.10;4.13;;;10.00;82.80;;;;;;4861500;29;20047;-93
2024/01/30 10:06:52;;;;;;;6.35;4.45;;;10.00;82.80;;;;;;4876502;29;20113;-95
2024/01/30 10:09:18;;;;;;;5.63;4.18;;;10.00;82.80;;;;;;4866584;29;20049;-78
2024/01/30 10:11:43;;;;;;;5.90;4.55;;;10.00;82.80;;;;;;4859351;29;20030;-96
2024/01/30 10:14:09;;;;;;;6.03;3.92;;;10.10;82.80;;;;;;4882756;29;20029;-95
2024/01/30 10:16:35;;;;;;;7.28;4.30;;;10.10;82.80;;;;;;4859997;29;20119;-82
2024/01/30 10:19:01;;;;;;;5.38;4.20;;;10.10;82.80;;;;;;4867004;29;20053;-81
2024/01/30 10:21:29;;;;;;;5.22;3.92;;;10.20;82.80;;;;;;4867023;29;20037;-82
2024/01/30 10:23:55;;;;;;;4.68;3.80;;;10.20;82.80;;;;;;4859229;29;20168;-77
2024/01/30 10:26:22;;;;;;;6.38;4.28;;;10.20;82.70;;;;;;4861990;29;20028;-78
2024/01/30 10:28:48;;;;;;;6.45;4.43;;;10.20;82.70;;;;;;4858399;29;20066;-94
2024/01/30 10:31:20;;;;;;;5.18;4.20;;;10.30;82.70;;;;;;4871868;29;20104;-94
2024/01/30 10:33:46;;;;;;;5.28;3.88;;;10.30;82.70;;;;;;4847478;29;20053;-77
2024/01/30 10:36:17;;;;;;;5.68;4.38;;;10.30;82.60;;;;;;4854885;29;20025;-79
2024/01/30 10:38:46;;;;;;;5.10;3.95;;;10.30;82.60;;;;;;4860534;29;20036;-84
2024/01/30 10:41:14;;;;;;;5.30;3.75;;;10.30;82.60;;;;;;4845059;29;20025;-94
2024/01/30 10:43:50;;;;;;;5.07;3.92;;;10.40;82.60;;;;;;4844461;29;20035;-82
2024/01/30 10:46:21;;;;;;;5.03;3.70;;;10.40;82.60;;;;;;4863111;29;20034;-94
2024/01/30 10:48:56;;;;;;;5.20;3.95;;;10.40;82.60;;;;;;4866175;29;20094;-83
2024/01/30 10:51:23;;;;;;;5.18;3.55;;;10.50;82.60;;;;;;4857979;29;20026;-93
2024/01/30 10:53:50;;;;;;;5.30;4.03;;;10.50;82.60;;;;;;4860213;29;20050;-94
2024/01/30 10:56:17;;;;;;;5.47;4.32;;;10.50;82.60;;;;;;4861632;29;20025;-82
2024/01/30 10:58:43;;;;;;;5.55;4.22;;;10.50;82.60;;;;;;4877615;29;20055;-84
2024/01/30 11:01:09;;;;;;;5.75;4.20;;;10.60;82.60;;;;;;4865211;29;20030;-92
2024/01/30 11:03:36;;;;;;;5.35;3.97;;;10.60;82.60;;;;;;4874153;29;20057;-92
2024/01/30 11:06:03;;;;;;;6.47;4.30;;;10.60;82.60;;;;;;4861994;29;20466;-83
2024/01/30 11:08:31;;;;;;;5.85;4.22;;;10.60;82.60;;;;;;4855623;29;20038;-83
2024/01/30 11:10:58;;;;;;;5.90;4.20;;;10.70;82.60;;;;;;4859070;29;20029;-93
2024/01/30 11:13:31;;;;;;;5.50;4.15;;;10.70;82.60;;;;;;4855594;29;20064;-77
2024/01/30 11:16:01;;;;;;;5.95;4.25;;;10.80;82.70;;;;;;4854101;29;20053;-82
2024/01/30 11:18:30;;;;;;;5.85;4.25;;;10.80;82.60;;;;;;4865507;29;20045;-83
2024/01/30 11:21:00;;;;;;;5.07;4.10;;;10.80;82.60;;;;;;4869770;29;20133;-94
2024/01/30 11:23:27;;;;;;;6.05;4.72;;;10.90;82.60;;;;;;4840381;29;20113;-93
2024/01/30 11:25:53;;;;;;;5.80;4.57;;;10.90;83.20;;;;;;4841965;29;20037;-83
2024/01/30 11:28:21;;;;;;;5.85;4.50;;;10.90;82.60;;;;;;4858894;29;20026;-93
2024/01/30 11:30:50;;;;;;;5.68;4.13;;;10.90;82.60;;;;;;4872841;29;20045;-83
2024/01/30 11:33:30;;;;;;;5.72;4.30;;;10.90;82.50;;;;;;4859727;29;20029;-83
2024/01/30 11:36:01;;;;;;;5.60;4.35;;;11.00;82.60;;;;;;4858438;29;20593;-83
2024/01/30 11:38:27;;;;;;;5.82;4.03;;;11.00;82.50;;;;;;4869022;29;20052;-94
2024/01/30 11:40:55;;;;;;;4.88;4.05;;;11.00;82.40;;;;;;4862465;29;20113;-83
2024/01/30 11:43:21;;;;;;;5.32;4.15;;;11.10;82.50;;;;;;4867371;29;20072;-78
2024/01/30 11:45:47;;;;;;;6.40;5.05;;;11.10;82.50;;;;;;4875619;29;20402;-94
2024/01/30 11:48:13;;;;;;;5.40;4.43;;;11.10;82.40;;;;;;4873896;29;20021;-93
2024/01/30 11:50:40;;;;;;;5.65;4.40;;;11.10;82.40;;;;;;4865530;29;20116;-93
2024/01/30 11:53:06;;;;;;;6.32;3.95;;;11.20;82.50;;;;;;4859191;29;20407;-83
2024/01/30 11:55:34;;;;;;;5.85;4.45;;;11.20;82.40;;;;;;4838678;29;20502;-86
2024/01/30 11:58:00;;;;;;;6.75;4.40;;;11.20;82.40;;;;;;4844934;29;20086;-93
2024/01/30 12:00:26;;;;;;;5.20;3.85;;;11.20;82.40;;;;;;4857555;29;20059;-93
2024/01/30 12:02:55;;;;;;;5.45;4.13;;;11.30;82.40;;;;;;4857446;29;20029;-78
2024/01/30 12:05:25;;;;;;;5.10;3.88;;;11.30;82.30;;;;;;4855171;29;20032;-82
2024/01/30 12:07:54;;;;;;;4.82;3.78;;;11.40;82.40;;;;;;4871246;29;20317;-82
2024/01/30 12:10:21;;;;;;;5.90;4.20;;;11.40;82.30;;;;;;4858867;29;20070;-82
2024/01/30 12:12:49;;;;;;;5.60;3.88;;;11.40;82.30;;;;;;4874672;29;20114;-92
2024/01/30 12:15:15;;;;;;;6.07;4.63;;;11.40;82.30;;;;;;4874239;29;20029;-82
2024/01/30 12:17:41;;;;;;;6.32;4.18;;;11.50;82.30;;;;;;4865982;29;20112;-82
2024/01/30 12:20:15;;;;;;;6.82;4.47;;;11.50;82.30;;;;;;4840768;29;20025;-79
2024/01/30 12:22:45;;;;;;;4.93;3.97;;;11.50;82.30;;;;;;4872638;29;20175;-82
2024/01/30 12:25:15;;;;;;;5.63;4.15;;;11.60;82.30;;;;;;4861574;29;20091;-82
2024/01/30 12:27:50;;;;;;;5.07;4.20;;;11.60;82.30;;;;;;4863773;29;20022;-93
2024/01/30 12:30:17;;;;;;;5.63;4.05;;;11.60;82.20;;;;;;4847493;29;20033;-90
2024/01/30 12:32:46;;;;;;;5.47;4.18;;;11.70;82.20;;;;;;4870541;29;20038;-78
2024/01/30 12:35:16;;;;;;;6.18;4.32;;;11.70;82.20;;;;;;4840759;29;20483;-82
2024/01/30 12:37:44;;;;;;;6.28;4.53;;;11.70;82.20;;;;;;4858819;29;20034;-92
2024/01/30 12:40:13;;;;;;;7.50;4.95;;;11.70;82.20;;;;;;4845696;29;20121;-82
2024/01/30 12:42:39;;;;;;;5.78;4.57;;;11.80;82.20;;;;;;4848591;29;20033;-78
2024/01/30 12:45:05;;;;;;;6.05;4.80;;;11.80;82.10;;;;;;4850997;29;20085;-78
2024/01/30 12:47:32;;;;;;;6.05;4.60;;;11.80;82.10;;;;;;4858231;29;20093;-78
2024/01/30 12:49:58;;;;;;;5.95;4.65;;;11.80;82.00;;;;;;4874451;29;20049;-78
2024/01/30 12:52:24;;;;;;;6.10;4.35;;;11.90;82.10;;;;;;4858444;29;20038;-91